createdAt,value
2022-08-17T00:01:32.035Z,18.30
2022-08-17T00:04:20.572Z,18.40
2022-08-17T00:06:49.088Z,18.40
2022-08-17T00:09:18.468Z,18.40
2022-08-17T00:12:41.715Z,18.50
2022-08-17T00:14:36.207Z,18.50
2022-08-17T00:17:04.800Z,18.60
2022-08-17T00:19:33.022Z,18.60
2022-08-17T00:22:32.061Z,18.60
2022-08-17T00:24:50.266Z,18.60
2022-08-17T00:27:17.489Z,18.70
2022-08-17T00:29:45.948Z,18.70
2022-08-17T00:33:11.678Z,18.70
2022-08-17T00:35:00.671Z,18.70
2022-08-17T00:37:27.761Z,18.70
2022-08-17T00:39:54.731Z,18.70
2022-08-17T00:42:21.660Z,18.80
2022-08-17T00:44:48.500Z,18.80
2022-08-17T00:47:15.362Z,18.80
2022-08-17T00:49:42.199Z,18.80
2022-08-17T00:52:16.647Z,18.80
2022-08-17T00:54:45.297Z,18.80
2022-08-17T00:57:21.585Z,18.80
2022-08-17T01:00:02.450Z,18.80
2022-08-17T01:02:34.442Z,18.80
2022-08-17T01:05:15.180Z,18.80
2022-08-17T01:07:42.523Z,18.80
2022-08-17T01:10:57.538Z,18.70
2022-08-17T01:12:58.090Z,18.70
2022-08-17T01:15:24.921Z,18.60
2022-08-17T01:17:51.804Z,18.60
2022-08-17T01:20:18.754Z,18.60
2022-08-17T01:22:45.618Z,18.50
2022-08-17T01:25:12.861Z,18.50
2022-08-17T01:27:39.751Z,18.40
2022-08-17T01:30:58.066Z,18.40
2022-08-17T01:32:55.539Z,18.30
2022-08-17T01:35:22.393Z,18.30
2022-08-17T01:37:49.490Z,18.20
2022-08-17T01:40:33.480Z,18.20
2022-08-17T01:43:24.215Z,18.10
2022-08-17T01:46:02.524Z,18.20
2022-08-17T01:48:35.091Z,18.10
2022-08-17T01:51:01.990Z,18.10
2022-08-17T01:53:40.070Z,18.00
2022-08-17T01:56:12.247Z,18.00
2022-08-17T01:58:39.585Z,17.90
2022-08-17T02:01:06.776Z,17.80
2022-08-17T02:03:34.631Z,17.80
2022-08-17T02:06:02.352Z,17.70
2022-08-17T02:08:38.749Z,17.70
2022-08-17T02:11:19.341Z,17.60
2022-08-17T02:13:48.675Z,17.60
2022-08-17T02:16:24.663Z,17.60
2022-08-17T02:18:51.528Z,17.50
2022-08-17T02:21:18.425Z,17.50
2022-08-17T02:23:47.553Z,17.50
2022-08-17T02:26:25.494Z,17.50
2022-08-17T02:28:53.755Z,17.40
2022-08-17T02:31:21.409Z,17.50
2022-08-17T02:34:00.251Z,17.50
2022-08-17T02:36:31.245Z,17.50
2022-08-17T02:38:58.831Z,17.50
2022-08-17T02:41:25.795Z,17.50
2022-08-17T02:43:53.687Z,17.50
2022-08-17T02:46:20.592Z,17.50
2022-08-17T02:48:47.505Z,17.50
2022-08-17T02:51:14.560Z,17.50
2022-08-17T02:53:41.457Z,17.60
2022-08-17T02:56:08.588Z,17.50
2022-08-17T02:58:36.141Z,17.50
2022-08-17T03:01:07.089Z,17.50
2022-08-17T03:03:34.447Z,17.50
2022-08-17T03:06:01.563Z,17.50
2022-08-17T03:08:28.492Z,17.40
2022-08-17T03:10:55.373Z,17.40
2022-08-17T03:13:22.520Z,17.40
2022-08-17T03:15:49.576Z,17.30
2022-08-17T03:18:19.075Z,17.20
2022-08-17T03:20:52.634Z,17.30
2022-08-17T03:23:23.628Z,17.20
2022-08-17T03:25:52.951Z,17.20
2022-08-17T03:28:20.231Z,17.20
2022-08-17T03:30:47.128Z,17.10
2022-08-17T03:33:14.048Z,17.10
2022-08-17T03:35:40.973Z,17.10
2022-08-17T03:38:11.159Z,17.00
2022-08-17T03:40:56.878Z,17.00
2022-08-17T03:43:25.290Z,17.00
2022-08-17T03:46:27.384Z,17.00
2022-08-17T03:49:14.750Z,17.00
2022-08-17T03:52:00.217Z,17.00
2022-08-17T03:54:45.871Z,16.90
2022-08-17T03:57:12.945Z,16.90
2022-08-17T03:59:40.786Z,16.90
2022-08-17T04:02:25.038Z,17.00
2022-08-17T04:04:52.546Z,16.90
2022-08-17T04:07:20.431Z,17.00
2022-08-17T04:09:47.383Z,16.90
2022-08-17T04:12:18.328Z,17.00
2022-08-17T04:14:51.763Z,16.90
2022-08-17T04:17:28.424Z,16.90
2022-08-17T04:19:55.405Z,16.90
2022-08-17T04:22:31.766Z,16.90
2022-08-17T04:25:09.444Z,16.80
2022-08-17T04:27:36.607Z,16.80
2022-08-17T04:30:04.170Z,16.80
2022-08-17T04:33:00.741Z,16.80
2022-08-17T04:35:22.950Z,16.70
2022-08-17T04:37:50.410Z,16.70
2022-08-17T04:40:36.366Z,16.70
2022-08-17T04:43:10.371Z,16.70
2022-08-17T04:45:55.132Z,16.80
2022-08-17T04:48:35.822Z,16.80
2022-08-17T04:51:11.270Z,16.80
2022-08-17T04:53:39.727Z,16.90
2022-08-17T04:56:06.884Z,17.00
2022-08-17T04:58:33.804Z,17.00
2022-08-17T05:01:01.537Z,17.00
2022-08-17T05:03:28.645Z,17.00
2022-08-17T05:05:55.542Z,17.00
2022-08-17T05:08:22.436Z,16.90
2022-08-17T05:10:49.463Z,16.90
2022-08-17T05:13:21.591Z,16.90
2022-08-17T05:15:49.166Z,16.90
2022-08-17T05:18:16.788Z,16.80
2022-08-17T05:20:43.879Z,16.80
2022-08-17T05:23:13.898Z,16.80
2022-08-17T05:25:47.610Z,16.80
2022-08-17T05:28:15.196Z,16.80
2022-08-17T05:30:43.297Z,16.80
2022-08-17T05:33:16.633Z,16.80
2022-08-17T05:35:46.998Z,16.80
2022-08-17T05:38:18.073Z,16.90
2022-08-17T05:40:45.196Z,16.90
2022-08-17T05:43:17.984Z,17.00
2022-08-17T05:46:06.793Z,17.00
2022-08-17T05:48:45.209Z,17.10
2022-08-17T05:51:24.693Z,17.20
2022-08-17T05:54:30.007Z,17.20
2022-08-17T05:57:39.887Z,17.30
2022-08-17T06:00:30.581Z,17.30
2022-08-17T06:03:26.205Z,17.40
2022-08-17T06:06:01.880Z,17.50
2022-08-17T06:08:51.518Z,17.60
2022-08-17T06:11:47.915Z,17.70
2022-08-17T06:14:29.570Z,17.70
2022-08-17T06:17:00.905Z,17.80
2022-08-17T06:19:39.629Z,17.90
2022-08-17T06:22:06.689Z,18.00
2022-08-17T06:24:42.105Z,18.00
2022-08-17T06:27:30.651Z,18.10
2022-08-17T06:30:05.508Z,18.10
2022-08-17T06:32:32.490Z,18.20
2022-08-17T06:35:00.512Z,18.30
2022-08-17T06:37:34.312Z,18.40
2022-08-17T06:40:26.148Z,18.40
2022-08-17T06:43:06.497Z,18.50
2022-08-17T06:46:02.844Z,18.60
2022-08-17T06:48:39.970Z,18.90
2022-08-17T06:51:14.989Z,18.90
2022-08-17T06:54:05.501Z,19.00
2022-08-17T06:56:53.280Z,19.10
2022-08-17T06:59:55.427Z,19.20
2022-08-17T07:02:52.812Z,19.50
2022-08-17T07:05:21.998Z,19.60
2022-08-17T07:08:02.997Z,19.70
2022-08-17T07:10:43.459Z,19.70
2022-08-17T07:13:34.946Z,19.70
2022-08-17T07:16:07.775Z,19.70
2022-08-17T07:18:34.710Z,19.70
2022-08-17T07:21:12.973Z,19.80
2022-08-17T07:23:49.708Z,19.70
2022-08-17T07:26:16.596Z,19.80
2022-08-17T07:28:44.897Z,19.80
2022-08-17T07:31:14.221Z,19.80
2022-08-17T07:33:41.157Z,19.90
2022-08-17T07:36:29.626Z,19.90
2022-08-17T07:38:57.706Z,19.90
2022-08-17T07:41:24.648Z,20.00
2022-08-17T07:43:52.889Z,20.10
2022-08-17T07:46:43.019Z,20.20
2022-08-17T07:49:09.818Z,20.40
2022-08-17T07:51:43.426Z,20.40
2022-08-17T07:54:16.042Z,20.50
2022-08-17T07:56:50.001Z,20.50
2022-08-17T07:59:33.275Z,20.50
2022-08-17T08:02:07.169Z,20.40
2022-08-17T08:05:00.500Z,20.40
2022-08-17T08:07:38.797Z,20.50
2022-08-17T08:10:11.235Z,20.50
2022-08-17T08:12:48.156Z,20.50
2022-08-17T08:15:25.734Z,20.60
2022-08-17T08:17:57.732Z,20.80
2022-08-17T08:20:53.517Z,21.10
2022-08-17T08:23:44.937Z,21.20
2022-08-17T08:26:26.537Z,21.30
2022-08-17T08:29:08.713Z,21.30
2022-08-17T08:31:57.711Z,21.30
2022-08-17T08:35:01.163Z,21.30
2022-08-17T08:37:55.751Z,21.20
2022-08-17T08:40:47.685Z,21.20
2022-08-17T08:43:36.294Z,21.00
2022-08-17T08:46:28.728Z,21.00
2022-08-17T08:49:12.019Z,20.90
2022-08-17T08:51:59.089Z,20.90
2022-08-17T08:54:43.586Z,20.90
2022-08-17T08:57:33.434Z,20.90
2022-08-17T09:00:16.683Z,21.00
2022-08-17T09:03:17.600Z,21.30
2022-08-17T09:06:32.277Z,21.40
2022-08-17T09:09:24.390Z,21.60
2022-08-17T09:12:04.210Z,21.60
2022-08-17T09:14:46.694Z,21.60
2022-08-17T09:17:18.464Z,21.60
2022-08-17T09:19:49.352Z,21.70
2022-08-17T09:22:31.437Z,21.80
2022-08-17T09:25:27.033Z,21.80
2022-08-17T09:28:08.271Z,21.80
2022-08-17T09:30:55.729Z,21.90
2022-08-17T09:33:26.252Z,22.10
2022-08-17T09:35:59.285Z,22.20
2022-08-17T09:38:58.097Z,22.10
2022-08-17T09:41:27.069Z,22.10
2022-08-17T09:44:23.199Z,22.10
2022-08-17T09:47:00.511Z,22.10
2022-08-17T09:49:48.829Z,22.20
2022-08-17T09:52:19.756Z,22.40
2022-08-17T09:54:46.961Z,22.40
2022-08-17T09:57:30.507Z,22.50
2022-08-17T10:00:16.703Z,22.50
2022-08-17T10:03:04.912Z,22.50
2022-08-17T10:06:09.113Z,22.50
2022-08-17T10:08:47.085Z,22.50
2022-08-17T10:11:46.383Z,22.60
2022-08-17T10:14:43.605Z,22.80
2022-08-17T10:17:15.447Z,23.00
2022-08-17T10:19:58.671Z,23.20
2022-08-17T10:23:05.611Z,23.30
2022-08-17T10:25:55.520Z,23.30
2022-08-17T10:28:29.561Z,23.20
2022-08-17T10:31:23.380Z,23.30
2022-08-17T10:34:09.457Z,23.30
2022-08-17T10:36:43.335Z,23.20
2022-08-17T10:39:27.236Z,23.10
2022-08-17T10:41:56.666Z,23.10
2022-08-17T10:44:39.397Z,23.10
2022-08-17T10:47:15.737Z,23.10
2022-08-17T10:50:04.450Z,23.20
2022-08-17T10:52:31.431Z,23.30
2022-08-17T10:55:01.243Z,23.30
2022-08-17T10:57:33.882Z,23.50
2022-08-17T11:00:02.532Z,23.50
2022-08-17T11:02:51.930Z,23.50
2022-08-17T11:05:43.813Z,23.70
2022-08-17T11:08:28.827Z,23.90
2022-08-17T11:10:58.915Z,24.00
2022-08-17T11:13:50.011Z,24.10
2022-08-17T11:16:35.153Z,24.20
2022-08-17T11:19:39.828Z,24.40
2022-08-17T11:22:46.222Z,24.60
2022-08-17T11:25:18.577Z,24.40
2022-08-17T11:27:47.185Z,24.40
2022-08-17T11:30:41.083Z,24.30
2022-08-17T11:33:34.095Z,24.40
2022-08-17T11:36:16.937Z,24.50
2022-08-17T11:39:18.843Z,24.70
2022-08-17T11:41:55.528Z,24.80
2022-08-17T11:44:22.416Z,24.80
2022-08-17T11:47:17.174Z,24.80
2022-08-17T11:50:41.434Z,24.60
2022-08-17T11:53:09.015Z,24.70
2022-08-17T11:55:39.632Z,24.60
2022-08-17T11:58:30.854Z,24.60
2022-08-17T12:01:01.189Z,24.60
2022-08-17T12:03:31.891Z,24.60
2022-08-17T12:06:41.613Z,24.60
2022-08-17T12:09:13.016Z,24.50
2022-08-17T12:12:12.571Z,24.40
2022-08-17T12:15:09.051Z,24.50
2022-08-17T12:17:39.375Z,24.50
2022-08-17T12:20:28.819Z,24.60
2022-08-17T12:23:17.521Z,24.80
2022-08-17T12:25:46.483Z,24.90
2022-08-17T12:28:29.135Z,25.00
2022-08-17T12:31:03.627Z,25.00
2022-08-17T12:33:30.608Z,25.00
2022-08-17T12:36:00.280Z,25.00
2022-08-17T12:38:33.132Z,24.90
2022-08-17T12:41:20.598Z,24.80
2022-08-17T12:43:56.228Z,24.80
2022-08-17T12:46:23.135Z,24.80
2022-08-17T12:48:59.949Z,24.90
2022-08-17T12:51:29.176Z,24.90
2022-08-17T12:53:56.355Z,24.90
2022-08-17T12:56:23.282Z,24.90
2022-08-17T12:58:54.160Z,25.00
2022-08-17T13:01:21.142Z,24.90
2022-08-17T13:03:50.040Z,24.90
2022-08-17T13:06:28.546Z,24.70
2022-08-17T13:08:55.439Z,24.60
2022-08-17T13:11:24.643Z,24.50
2022-08-17T13:13:54.491Z,24.40
2022-08-17T13:16:23.784Z,24.30
2022-08-17T13:18:53.087Z,24.30
2022-08-17T13:21:20.015Z,24.20
2022-08-17T13:24:05.073Z,24.20
2022-08-17T13:26:33.683Z,24.10
2022-08-17T13:29:01.575Z,24.10
2022-08-17T13:31:28.425Z,24.20
2022-08-17T13:34:19.181Z,24.20
2022-08-17T13:36:46.453Z,24.30
2022-08-17T13:39:28.396Z,24.20
2022-08-17T13:41:56.188Z,24.30
2022-08-17T13:44:37.383Z,24.40
2022-08-17T13:47:06.101Z,24.40
2022-08-17T13:49:40.973Z,24.40
2022-08-17T13:52:35.796Z,24.50
2022-08-17T13:55:16.363Z,24.40
2022-08-17T13:57:47.579Z,24.40
2022-08-17T14:00:30.608Z,24.40
2022-08-17T14:03:01.961Z,24.30
2022-08-17T14:05:29.767Z,24.20
2022-08-17T14:07:58.061Z,24.30
2022-08-17T14:10:25.411Z,24.30
2022-08-17T14:12:53.552Z,24.40
2022-08-17T14:15:23.545Z,24.50
2022-08-17T14:18:10.357Z,24.50
2022-08-17T14:20:39.681Z,24.50
2022-08-17T14:23:08.355Z,24.50
2022-08-17T14:25:35.353Z,24.60
2022-08-17T14:28:04.530Z,24.60
2022-08-17T14:30:31.960Z,24.60
2022-08-17T14:32:59.115Z,24.60
2022-08-17T14:35:27.946Z,24.40
2022-08-17T14:37:55.443Z,24.40
2022-08-17T14:40:24.681Z,24.50
2022-08-17T14:42:53.084Z,24.50
2022-08-17T14:45:32.370Z,24.40
2022-08-17T14:48:04.292Z,24.40
2022-08-17T14:50:31.821Z,24.40
2022-08-17T14:52:59.168Z,24.40
2022-08-17T14:55:28.457Z,24.50
2022-08-17T14:57:55.331Z,24.50
2022-08-17T15:00:22.634Z,24.50
2022-08-17T15:02:55.076Z,24.50
2022-08-17T15:05:23.454Z,24.50
2022-08-17T15:07:53.429Z,24.50
2022-08-17T15:10:20.654Z,24.50
2022-08-17T15:12:47.567Z,24.60
2022-08-17T15:15:15.302Z,24.60
2022-08-17T15:17:46.004Z,24.60
2022-08-17T15:20:15.322Z,24.60
2022-08-17T15:22:42.447Z,24.60
2022-08-17T15:25:10.622Z,24.60
2022-08-17T15:27:37.580Z,24.60
2022-08-17T15:30:09.492Z,24.60
2022-08-17T15:32:38.306Z,24.70
2022-08-17T15:35:05.564Z,24.60
2022-08-17T15:37:32.639Z,24.60
2022-08-17T15:40:02.474Z,24.60
2022-08-17T15:42:29.655Z,24.50
2022-08-17T15:44:56.623Z,24.50
2022-08-17T15:47:24.529Z,24.50
2022-08-17T15:49:55.439Z,24.40
2022-08-17T15:52:26.435Z,24.20
2022-08-17T15:54:55.162Z,24.00
2022-08-17T15:57:23.433Z,23.80
2022-08-17T15:59:54.007Z,23.60
2022-08-17T16:03:14.013Z,23.30
2022-08-17T16:05:18.913Z,23.20
2022-08-17T16:07:47.152Z,23.20
2022-08-17T16:10:18.806Z,23.10
2022-08-17T16:12:47.401Z,23.10
2022-08-17T16:15:14.609Z,22.90
2022-08-17T16:17:44.637Z,22.80
2022-08-17T16:20:19.690Z,22.60
2022-08-17T16:22:48.039Z,22.40
2022-08-17T16:25:23.455Z,22.30
2022-08-17T16:28:10.329Z,22.30
2022-08-17T16:30:38.298Z,22.30
2022-08-17T16:33:05.393Z,22.30
2022-08-17T16:35:32.352Z,22.30
2022-08-17T16:37:59.389Z,22.30
2022-08-17T16:40:28.003Z,22.40
2022-08-17T16:42:55.483Z,22.30
2022-08-17T16:45:27.019Z,22.40
2022-08-17T16:47:55.023Z,22.50
2022-08-17T16:50:22.878Z,22.40
2022-08-17T16:52:50.233Z,22.40
2022-08-17T16:55:19.272Z,22.30
2022-08-17T16:57:50.069Z,22.30
2022-08-17T17:00:18.120Z,22.20
2022-08-17T17:02:49.756Z,22.20
2022-08-17T17:05:43.394Z,22.10
2022-08-17T17:08:16.715Z,22.10
2022-08-17T17:10:49.242Z,22.10
2022-08-17T17:13:32.301Z,22.10
2022-08-17T17:16:18.617Z,22.10
2022-08-17T17:19:07.056Z,22.10
2022-08-17T17:22:00.509Z,22.10
2022-08-17T17:24:50.056Z,22.00
2022-08-17T17:27:39.455Z,21.90
2022-08-17T17:30:09.411Z,21.90
2022-08-17T17:32:55.135Z,21.80
2022-08-17T17:35:26.087Z,21.60
2022-08-17T17:37:53.291Z,21.60
2022-08-17T17:40:37.624Z,21.60
2022-08-17T17:43:34.727Z,21.50
2022-08-17T17:46:27.321Z,21.40
2022-08-17T17:48:48.307Z,21.40
2022-08-17T17:52:06.348Z,21.30
2022-08-17T17:54:52.336Z,21.20
2022-08-17T17:57:28.922Z,21.10
2022-08-17T18:00:06.152Z,21.20
2022-08-17T18:02:51.463Z,21.20
2022-08-17T18:05:37.434Z,21.20
2022-08-17T18:08:34.868Z,21.10
2022-08-17T18:11:26.418Z,21.10
2022-08-17T18:14:25.995Z,21.00
2022-08-17T18:16:58.918Z,21.10
2022-08-17T18:19:27.404Z,21.00
2022-08-17T18:22:31.103Z,20.90
2022-08-17T18:24:58.001Z,20.90
2022-08-17T18:27:34.774Z,20.90
2022-08-17T18:30:14.728Z,20.80
2022-08-17T18:32:43.752Z,20.90
2022-08-17T18:35:16.565Z,20.90
2022-08-17T18:37:45.214Z,20.90
2022-08-17T18:40:18.542Z,20.90
2022-08-17T18:42:56.067Z,20.80
2022-08-17T18:45:46.542Z,20.80
2022-08-17T18:48:38.154Z,20.80
2022-08-17T18:51:40.619Z,20.70
2022-08-17T18:54:15.736Z,20.70
2022-08-17T18:56:55.915Z,20.60
2022-08-17T18:59:40.457Z,20.60
2022-08-17T19:02:24.238Z,20.60
2022-08-17T19:05:13.399Z,20.60
2022-08-17T19:07:45.330Z,20.50
2022-08-17T19:10:23.549Z,20.50
2022-08-17T19:12:52.888Z,20.50
2022-08-17T19:15:28.553Z,20.50
2022-08-17T19:18:05.171Z,20.40
2022-08-17T19:20:36.073Z,20.40
2022-08-17T19:23:16.657Z,20.30
2022-08-17T19:25:49.567Z,20.30
2022-08-17T19:28:23.819Z,20.30
2022-08-17T19:31:04.722Z,20.30
2022-08-17T19:33:31.716Z,20.40
2022-08-17T19:36:26.146Z,20.40
2022-08-17T19:38:59.049Z,20.40
2022-08-17T19:41:31.783Z,20.40
2022-08-17T19:44:10.736Z,20.40
2022-08-17T19:47:12.697Z,20.30
2022-08-17T19:49:48.507Z,20.30
2022-08-17T19:52:21.496Z,20.30
2022-08-17T19:54:55.495Z,20.30
2022-08-17T19:57:49.424Z,20.30
2022-08-17T20:00:17.434Z,20.30
2022-08-17T20:03:16.738Z,20.30
2022-08-17T20:06:12.070Z,20.40
2022-08-17T20:09:00.132Z,20.30
2022-08-17T20:12:10.325Z,20.30
2022-08-17T20:14:53.488Z,20.20
2022-08-17T20:17:24.171Z,20.20
2022-08-17T20:19:52.200Z,20.20
2022-08-17T20:22:52.941Z,20.20
2022-08-17T20:25:47.899Z,20.20
2022-08-17T20:28:24.926Z,20.20
2022-08-17T20:30:51.930Z,20.20
2022-08-17T20:33:27.719Z,20.20
2022-08-17T20:36:19.798Z,20.10
2022-08-17T20:38:54.549Z,20.00
2022-08-17T20:41:22.967Z,19.90
2022-08-17T20:43:59.255Z,19.90
2022-08-17T20:46:38.304Z,19.90
2022-08-17T20:49:11.264Z,19.90
2022-08-17T20:52:02.408Z,19.90
2022-08-17T20:54:43.474Z,19.90
2022-08-17T20:57:31.400Z,19.80
2022-08-17T21:00:18.202Z,19.80
2022-08-17T21:02:49.870Z,19.80
2022-08-17T21:05:34.655Z,19.80
2022-08-17T21:08:34.668Z,19.80
2022-08-17T21:11:22.018Z,19.90
2022-08-17T21:14:20.809Z,19.90
2022-08-17T21:17:14.977Z,19.90
2022-08-17T21:20:11.078Z,19.90
2022-08-17T21:22:50.518Z,19.90
2022-08-17T21:25:39.210Z,19.90
2022-08-17T21:29:00.338Z,19.90
2022-08-17T21:31:34.166Z,19.90
2022-08-17T21:34:16.921Z,19.80
2022-08-17T21:36:44.587Z,19.90
2022-08-17T21:39:16.175Z,19.90
2022-08-17T21:41:53.193Z,19.80
2022-08-17T21:44:35.901Z,19.80
2022-08-17T21:47:23.751Z,19.80
2022-08-17T21:49:54.106Z,19.90
2022-08-17T21:52:23.471Z,19.90
2022-08-17T21:54:57.165Z,19.80
2022-08-17T21:57:27.660Z,19.80
2022-08-17T21:59:58.953Z,19.80
2022-08-17T22:02:34.444Z,19.80
2022-08-17T22:05:11.346Z,19.70
2022-08-17T22:07:41.642Z,19.70
2022-08-17T22:10:28.917Z,19.60
2022-08-17T22:13:23.320Z,19.60
2022-08-17T22:16:15.514Z,19.50
2022-08-17T22:18:53.889Z,19.50
2022-08-17T22:21:22.689Z,19.50
2022-08-17T22:24:19.913Z,19.50
2022-08-17T22:26:59.547Z,19.50
2022-08-17T22:29:53.166Z,19.50
2022-08-17T22:32:42.027Z,19.50
2022-08-17T22:35:29.471Z,19.50
2022-08-17T22:37:57.046Z,19.50
2022-08-17T22:40:30.504Z,19.50
2022-08-17T22:42:58.202Z,19.50
2022-08-17T22:45:31.280Z,19.50
2022-08-17T22:47:58.935Z,19.40
2022-08-17T22:50:28.122Z,19.40
2022-08-17T22:53:19.751Z,19.40
2022-08-17T22:56:15.257Z,19.40
2022-08-17T22:59:10.268Z,19.50
2022-08-17T23:01:39.118Z,19.40
2022-08-17T23:04:08.174Z,19.40
2022-08-17T23:06:35.922Z,19.50
2022-08-17T23:09:04.372Z,19.40
2022-08-17T23:11:48.559Z,19.50
2022-08-17T23:14:19.385Z,19.50
2022-08-17T23:16:47.288Z,19.50
2022-08-17T23:19:16.775Z,19.50
2022-08-17T23:21:46.713Z,19.50
2022-08-17T23:24:29.009Z,19.50
2022-08-17T23:26:59.039Z,19.50
2022-08-17T23:29:29.480Z,19.60
2022-08-17T23:31:57.980Z,19.60
2022-08-17T23:34:25.733Z,19.60
2022-08-17T23:36:53.234Z,19.60
2022-08-17T23:39:27.668Z,19.60
2022-08-17T23:41:59.006Z,19.60
2022-08-17T23:44:26.201Z,19.70
2022-08-17T23:46:53.252Z,19.70
2022-08-17T23:49:20.139Z,19.70
2022-08-17T23:51:47.320Z,19.70
2022-08-17T23:54:20.345Z,19.70
2022-08-17T23:56:47.212Z,19.60
2022-08-17T23:59:15.156Z,19.60
